Terminal Aerodrome Forecast
Issued by NWS

Home | Current Version | Previous Version | Graphics & Text | Print | Product List | Glossary On
Versions: 1 2 3 4 5 6 7 8 9 10 11 12 13 14 15 16 17 18 19 20 21
120
FTUS43 KICT 251004 AAC
TAFSLN
TAF AMD
KSLN 251004Z 2510/2606 05009KT P6SM VCTS SCT040 BKN060CB
      TEMPO 2510/2512 VRB10KT 4SM TSRA BKN015CB
     FM251300 08011KT P6SM BKN100
     FM252100 12010KT P6SM SCT200=

USA.gov is the U.S. government's official web portal to all federal, state and local government web resources and services.